sensor_id;sensor_type;location;lat;lon;timestamp;pressure;altitude;pressure_sealevel;temperature;humidity
20017;BME280;10169;42.664;23.610;2023-05-20T00:00:37;95664.59;;;10.97;100.00
20017;BME280;10169;42.664;23.610;2023-05-20T00:02:37;95667.94;;;10.92;100.00
20017;BME280;10169;42.664;23.610;2023-05-20T00:04:37;95662.03;;;10.90;100.00
20017;BME280;10169;42.664;23.610;2023-05-20T00:06:39;95665.16;;;10.87;100.00
20017;BME280;10169;42.664;23.610;2023-05-20T00:08:40;95661.94;;;10.85;100.00
20017;BME280;10169;42.664;23.610;2023-05-20T00:10:40;95656.97;;;10.77;100.00
20017;BME280;10169;42.664;23.610;2023-05-20T00:12:40;95647.72;;;10.68;100.00
20017;BME280;10169;42.664;23.610;2023-05-20T00:14:40;95643.44;;;10.67;100.00
20017;BME280;10169;42.664;23.610;2023-05-20T00:16:41;95643.00;;;10.70;100.00
20017;BME280;10169;42.664;23.610;2023-05-20T00:18:42;95649.94;;;10.71;100.00
20017;BME280;10169;42.664;23.610;2023-05-20T00:20:42;95648.06;;;10.72;100.00
20017;BME280;10169;42.664;23.610;2023-05-20T00:22:43;95642.28;;;10.63;100.00
20017;BME280;10169;42.664;23.610;2023-05-20T00:24:43;95645.41;;;10.60;100.00
20017;BME280;10169;42.664;23.610;2023-05-20T00:26:43;95636.97;;;10.75;100.00
20017;BME280;10169;42.664;23.610;2023-05-20T00:28:44;95630.16;;;10.67;100.00
20017;BME280;10169;42.664;23.610;2023-05-20T00:30:44;95622.28;;;10.49;100.00
20017;BME280;10169;42.664;23.610;2023-05-20T00:32:44;95630.50;;;10.48;100.00
20017;BME280;10169;42.664;23.610;2023-05-20T00:34:54;95631.19;;;10.32;100.00
20017;BME280;10169;42.664;23.610;2023-05-20T00:36:54;95628.59;;;10.13;100.00
20017;BME280;10169;42.664;23.610;2023-05-20T00:38:55;95627.00;;;10.12;100.00
20017;BME280;10169;42.664;23.610;2023-05-20T00:40:55;95624.69;;;10.16;100.00
20017;BME280;10169;42.664;23.610;2023-05-20T00:42:55;95630.81;;;10.16;100.00
20017;BME280;10169;42.664;23.610;2023-05-20T00:44:56;95636.38;;;10.27;100.00
20017;BME280;10169;42.664;23.610;2023-05-20T00:46:56;95636.28;;;10.33;100.00
20017;BME280;10169;42.664;23.610;2023-05-20T00:48:56;95641.34;;;10.35;100.00
20017;BME280;10169;42.664;23.610;2023-05-20T00:50:57;95644.13;;;10.40;100.00
20017;BME280;10169;42.664;23.610;2023-05-20T00:52:57;95642.25;;;10.40;100.00
20017;BME280;10169;42.664;23.610;2023-05-20T00:54:58;95645.38;;;10.26;100.00
20017;BME280;10169;42.664;23.610;2023-05-20T00:56:58;95636.47;;;10.20;100.00
20017;BME280;10169;42.664;23.610;2023-05-20T00:58:59;95641.56;;;10.22;100.00
20017;BME280;10169;42.664;23.610;2023-05-20T01:01:00;95637.06;;;10.22;100.00
20017;BME280;10169;42.664;23.610;2023-05-20T01:03:00;95634.50;;;10.15;100.00
20017;BME280;10169;42.664;23.610;2023-05-20T01:05:00;95635.22;;;10.23;100.00
20017;BME280;10169;42.664;23.610;2023-05-20T01:07:02;95630.81;;;10.16;100.00
20017;BME280;10169;42.664;23.610;2023-05-20T01:09:03;95637.03;;;10.10;100.00
20017;BME280;10169;42.664;23.610;2023-05-20T01:13:28;95635.72;;;10.01;100.00
20017;BME280;10169;42.664;23.610;2023-05-20T01:15:31;95639.78;;;10.04;100.00
20017;BME280;10169;42.664;23.610;2023-05-20T01:17:32;95642.06;;;10.00;100.00
20017;BME280;10169;42.664;23.610;2023-05-20T01:19:46;95642.28;;;9.99;100.00
20017;BME280;10169;42.664;23.610;2023-05-20T01:21:47;95637.28;;;9.91;100.00
20017;BME280;10169;42.664;23.610;2023-05-20T01:23:49;95641.34;;;9.93;100.00
20017;BME280;10169;42.664;23.610;2023-05-20T01:25:49;95619.28;;;9.81;100.00
20017;BME280;10169;42.664;23.610;2023-05-20T01:27:49;95644.56;;;9.95;100.00
20017;BME280;10169;42.664;23.610;2023-05-20T01:29:51;95649.44;;;9.98;100.00
20017;BME280;10169;42.664;23.610;2023-05-20T01:31:52;95644.47;;;9.90;100.00
20017;BME280;10169;42.664;23.610;2023-05-20T01:33:54;95646.53;;;9.88;100.00
20017;BME280;10169;42.664;23.610;2023-05-20T01:35:57;95643.19;;;9.81;100.00
20017;BME280;10169;42.664;23.610;2023-05-20T01:37:58;95644.19;;;9.80;100.00
20017;BME280;10169;42.664;23.610;2023-05-20T01:39:59;95642.00;;;9.77;100.00
20017;BME280;10169;42.664;23.610;2023-05-20T01:41:59;95644.25;;;9.62;100.00
20017;BME280;10169;42.664;23.610;2023-05-20T01:44:01;95648.38;;;9.58;100.00
20017;BME280;10169;42.664;23.610;2023-05-20T01:46:04;95644.41;;;9.49;100.00
20017;BME280;10169;42.664;23.610;2023-05-20T01:48:04;95642.09;;;9.41;100.00
20017;BME280;10169;42.664;23.610;2023-05-20T01:50:04;95619.19;;;9.28;100.00
20017;BME280;10169;42.664;23.610;2023-05-20T01:52:05;95638.31;;;9.30;100.00
20017;BME280;10169;42.664;23.610;2023-05-20T01:54:06;95630.84;;;9.27;100.00
20017;BME280;10169;42.664;23.610;2023-05-20T01:56:06;95634.75;;;9.25;100.00
20017;BME280;10169;42.664;23.610;2023-05-20T01:58:06;95632.09;;;9.25;100.00
20017;BME280;10169;42.664;23.610;2023-05-20T02:00:07;95634.56;;;9.38;100.00
20017;BME280;10169;42.664;23.610;2023-05-20T02:02:08;95633.84;;;9.31;100.00
20017;BME280;10169;42.664;23.610;2023-05-20T02:04:09;95631.28;;;9.24;100.00
20017;BME280;10169;42.664;23.610;2023-05-20T02:06:09;95622.72;;;9.22;100.00
20017;BME280;10169;42.664;23.610;2023-05-20T02:08:10;95623.06;;;9.14;100.00
20017;BME280;10169;42.664;23.610;2023-05-20T02:10:10;95623.19;;;9.01;100.00
20017;BME280;10169;42.664;23.610;2023-05-20T02:12:10;95623.41;;;9.00;100.00
20017;BME280;10169;42.664;23.610;2023-05-20T02:14:16;95621.41;;;8.95;100.00
20017;BME280;10169;42.664;23.610;2023-05-20T02:16:17;95616.94;;;8.96;100.00
20017;BME280;10169;42.664;23.610;2023-05-20T02:18:17;95627.16;;;8.92;100.00
20017;BME280;10169;42.664;23.610;2023-05-20T02:20:17;95627.84;;;8.88;100.00
20017;BME280;10169;42.664;23.610;2023-05-20T02:22:18;95632.25;;;8.75;100.00
20017;BME280;10169;42.664;23.610;2023-05-20T02:24:18;95621.66;;;8.75;100.00
20017;BME280;10169;42.664;23.610;2023-05-20T02:26:20;95620.09;;;8.68;100.00
20017;BME280;10169;42.664;23.610;2023-05-20T02:28:21;95625.44;;;8.61;100.00
20017;BME280;10169;42.664;23.610;2023-05-20T02:30:21;95614.50;;;8.58;100.00
20017;BME280;10169;42.664;23.610;2023-05-20T02:32:22;95623.25;;;8.58;100.00
20017;BME280;10169;42.664;23.610;2023-05-20T02:34:27;95622.38;;;8.64;100.00
20017;BME280;10169;42.664;23.610;2023-05-20T02:36:29;95616.63;;;8.67;100.00
20017;BME280;10169;42.664;23.610;2023-05-20T02:38:31;95615.91;;;8.60;100.00
20017;BME280;10169;42.664;23.610;2023-05-20T02:40:31;95624.34;;;8.51;100.00
20017;BME280;10169;42.664;23.610;2023-05-20T02:42:31;95620.88;;;8.50;100.00
20017;BME280;10169;42.664;23.610;2023-05-20T02:44:32;95611.00;;;8.39;100.00
20017;BME280;10169;42.664;23.610;2023-05-20T02:46:32;95617.94;;;8.40;100.00
20017;BME280;10169;42.664;23.610;2023-05-20T02:48:33;95617.34;;;8.38;100.00
20017;BME280;10169;42.664;23.610;2023-05-20T02:50:33;95620.50;;;8.22;100.00
20017;BME280;10169;42.664;23.610;2023-05-20T02:52:33;95618.78;;;8.34;100.00
20017;BME280;10169;42.664;23.610;2023-05-20T02:54:34;95632.19;;;8.39;100.00
20017;BME280;10169;42.664;23.610;2023-05-20T02:56:34;95637.97;;;8.30;100.00
20017;BME280;10169;42.664;23.610;2023-05-20T02:58:34;95641.66;;;8.29;100.00
20017;BME280;10169;42.664;23.610;2023-05-20T03:00:35;95634.16;;;8.19;100.00
20017;BME280;10169;42.664;23.610;2023-05-20T03:02:39;95633.16;;;8.20;100.00
20017;BME280;10169;42.664;23.610;2023-05-20T03:04:39;95636.00;;;8.19;100.00
20017;BME280;10169;42.664;23.610;2023-05-20T03:06:40;95640.50;;;8.18;100.00
20017;BME280;10169;42.664;23.610;2023-05-20T03:08:43;95642.53;;;8.16;100.00
20017;BME280;10169;42.664;23.610;2023-05-20T03:10:43;95637.09;;;8.11;100.00
20017;BME280;10169;42.664;23.610;2023-05-20T03:12:44;95644.97;;;8.18;100.00
20017;BME280;10169;42.664;23.610;2023-05-20T03:14:44;95638.78;;;8.30;100.00
20017;BME280;10169;42.664;23.610;2023-05-20T03:16:44;95650.19;;;8.31;100.00
20017;BME280;10169;42.664;23.610;2023-05-20T03:18:45;95649.81;;;8.27;100.00
20017;BME280;10169;42.664;23.610;2023-05-20T03:20:45;95654.09;;;8.28;100.00
20017;BME280;10169;42.664;23.610;2023-05-20T03:22:46;95649.78;;;8.34;100.00
20017;BME280;10169;42.664;23.610;2023-05-20T03:24:46;95648.06;;;8.39;100.00
20017;BME280;10169;42.664;23.610;2023-05-20T03:26:47;95656.84;;;8.40;100.00
20017;BME280;10169;42.664;23.610;2023-05-20T03:28:47;95651.59;;;8.33;100.00
20017;BME280;10169;42.664;23.610;2023-05-20T03:30:48;95649.38;;;8.30;100.00
20017;BME280;10169;42.664;23.610;2023-05-20T03:32:48;95646.25;;;8.40;100.00
20017;BME280;10169;42.664;23.610;2023-05-20T03:34:48;95651.31;;;8.41;100.00
20017;BME280;10169;42.664;23.610;2023-05-20T03:36:50;95641.59;;;8.35;100.00
20017;BME280;10169;42.664;23.610;2023-05-20T03:38:50;95652.88;;;8.49;100.00
20017;BME280;10169;42.664;23.610;2023-05-20T03:40:50;95639.00;;;8.53;100.00
20017;BME280;10169;42.664;23.610;2023-05-20T03:42:51;95644.00;;;8.61;100.00
20017;BME280;10169;42.664;23.610;2023-05-20T03:44:51;95652.28;;;8.71;100.00
20017;BME280;10169;42.664;23.610;2023-05-20T03:46:51;95655.78;;;8.84;100.00
20017;BME280;10169;42.664;23.610;2023-05-20T03:48:51;95660.38;;;8.95;100.00
20017;BME280;10169;42.664;23.610;2023-05-20T03:50:52;95652.41;;;9.13;100.00
20017;BME280;10169;42.664;23.610;2023-05-20T03:52:52;95654.47;;;9.29;100.00
20017;BME280;10169;42.664;23.610;2023-05-20T03:54:53;95657.47;;;9.50;100.00
20017;BME280;10169;42.664;23.610;2023-05-20T03:56:53;95655.75;;;9.56;100.00
20017;BME280;10169;42.664;23.610;2023-05-20T03:58:53;95653.19;;;9.49;100.00
20017;BME280;10169;42.664;23.610;2023-05-20T04:00:54;95650.28;;;9.69;100.00
20017;BME280;10169;42.664;23.610;2023-05-20T04:02:54;95640.78;;;9.62;100.00
20017;BME280;10169;42.664;23.610;2023-05-20T04:04:55;95651.03;;;9.58;100.00
20017;BME280;10169;42.664;23.610;2023-05-20T04:06:57;95647.75;;;9.74;100.00
20017;BME280;10169;42.664;23.610;2023-05-20T04:08:59;95650.75;;;9.78;100.00
20017;BME280;10169;42.664;23.610;2023-05-20T04:11:00;95659.16;;;9.93;100.00
20017;BME280;10169;42.664;23.610;2023-05-20T04:13:00;95659.72;;;9.95;100.00
20017;BME280;10169;42.664;23.610;2023-05-20T04:15:00;95662.41;;;10.06;100.00
20017;BME280;10169;42.664;23.610;2023-05-20T04:17:02;95663.19;;;10.07;100.00
20017;BME280;10169;42.664;23.610;2023-05-20T04:19:03;95664.06;;;10.19;100.00
20017;BME280;10169;42.664;23.610;2023-05-20T04:21:03;95665.72;;;10.32;100.00
20017;BME280;10169;42.664;23.610;2023-05-20T04:23:04;95667.69;;;10.48;100.00
20017;BME280;10169;42.664;23.610;2023-05-20T04:25:04;95664.59;;;10.74;100.00
20017;BME280;10169;42.664;23.610;2023-05-20T04:27:05;95654.75;;;10.74;100.00
20017;BME280;10169;42.664;23.610;2023-05-20T04:29:06;95655.59;;;10.75;100.00
20017;BME280;10169;42.664;23.610;2023-05-20T04:31:07;95657.06;;;10.94;100.00
20017;BME280;10169;42.664;23.610;2023-05-20T04:33:07;95651.41;;;10.79;100.00
20017;BME280;10169;42.664;23.610;2023-05-20T04:35:07;95654.19;;;10.84;100.00
20017;BME280;10169;42.664;23.610;2023-05-20T04:37:10;95654.19;;;10.84;100.00
20017;BME280;10169;42.664;23.610;2023-05-20T04:39:11;95652.22;;;11.03;100.00
20017;BME280;10169;42.664;23.610;2023-05-20T04:41:11;95649.19;;;11.11;100.00
20017;BME280;10169;42.664;23.610;2023-05-20T04:43:12;95658.44;;;11.20;100.00
20017;BME280;10169;42.664;23.610;2023-05-20T04:45:13;95657.34;;;11.32;100.00
20017;BME280;10169;42.664;23.610;2023-05-20T04:47:14;95652.22;;;11.54;100.00
20017;BME280;10169;42.664;23.610;2023-05-20T04:49:14;95657.50;;;11.65;100.00
20017;BME280;10169;42.664;23.610;2023-05-20T04:51:15;95658.75;;;11.75;100.00
20017;BME280;10169;42.664;23.610;2023-05-20T04:53:15;95658.47;;;11.88;100.00
20017;BME280;10169;42.664;23.610;2023-05-20T04:55:16;95654.22;;;12.03;100.00
20017;BME280;10169;42.664;23.610;2023-05-20T04:57:17;95651.72;;;12.13;100.00
20017;BME280;10169;42.664;23.610;2023-05-20T04:59:20;95649.25;;;12.40;100.00
20017;BME280;10169;42.664;23.610;2023-05-20T05:01:20;95643.19;;;12.45;100.00
20017;BME280;10169;42.664;23.610;2023-05-20T05:03:21;95634.94;;;12.63;100.00
20017;BME280;10169;42.664;23.610;2023-05-20T05:05:21;95636.00;;;12.62;100.00
20017;BME280;10169;42.664;23.610;2023-05-20T05:07:21;95635.97;;;12.78;100.00
20017;BME280;10169;42.664;23.610;2023-05-20T05:09:22;95629.75;;;12.89;100.00
20017;BME280;10169;42.664;23.610;2023-05-20T05:11:22;95625.13;;;13.01;100.00
20017;BME280;10169;42.664;23.610;2023-05-20T05:13:22;95630.38;;;13.13;100.00
20017;BME280;10169;42.664;23.610;2023-05-20T05:15:23;95631.50;;;13.17;100.00
20017;BME280;10169;42.664;23.610;2023-05-20T05:17:23;95622.38;;;13.35;100.00
20017;BME280;10169;42.664;23.610;2023-05-20T05:19:24;95636.69;;;13.72;100.00
20017;BME280;10169;42.664;23.610;2023-05-20T05:21:24;95631.94;;;13.79;100.00
20017;BME280;10169;42.664;23.610;2023-05-20T05:23:25;95632.72;;;13.53;100.00
20017;BME280;10169;42.664;23.610;2023-05-20T05:25:25;95633.56;;;13.80;100.00
20017;BME280;10169;42.664;23.610;2023-05-20T05:27:26;95638.41;;;13.83;100.00
20017;BME280;10169;42.664;23.610;2023-05-20T05:29:26;95642.63;;;14.06;100.00
20017;BME280;10169;42.664;23.610;2023-05-20T05:31:26;95635.56;;;13.90;100.00
20017;BME280;10169;42.664;23.610;2023-05-20T05:33:26;95646.88;;;14.02;100.00
20017;BME280;10169;42.664;23.610;2023-05-20T05:35:27;95633.91;;;14.15;100.00
20017;BME280;10169;42.664;23.610;2023-05-20T05:37:27;95633.09;;;14.15;100.00
20017;BME280;10169;42.664;23.610;2023-05-20T05:39:27;95628.84;;;14.40;100.00
20017;BME280;10169;42.664;23.610;2023-05-20T05:41:28;95633.53;;;14.60;100.00
20017;BME280;10169;42.664;23.610;2023-05-20T05:43:28;95632.09;;;14.79;100.00
20017;BME280;10169;42.664;23.610;2023-05-20T05:45:28;95627.63;;;15.00;100.00
20017;BME280;10169;42.664;23.610;2023-05-20T05:47:29;95614.91;;;15.17;100.00
20017;BME280;10169;42.664;23.610;2023-05-20T05:49:31;95605.56;;;15.24;100.00
20017;BME280;10169;42.664;23.610;2023-05-20T05:51:32;95605.84;;;15.28;100.00
20017;BME280;10169;42.664;23.610;2023-05-20T05:53:32;95604.75;;;15.29;100.00
20017;BME280;10169;42.664;23.610;2023-05-20T05:55:32;95610.44;;;15.33;100.00
20017;BME280;10169;42.664;23.610;2023-05-20T05:57:32;95606.75;;;15.44;100.00
20017;BME280;10169;42.664;23.610;2023-05-20T05:59:33;95613.00;;;15.64;100.00
20017;BME280;10169;42.664;23.610;2023-05-20T06:01:33;95616.56;;;16.00;100.00
20017;BME280;10169;42.664;23.610;2023-05-20T06:03:33;95603.16;;;16.05;100.00
20017;BME280;10169;42.664;23.610;2023-05-20T06:05:34;95602.63;;;16.13;100.00
20017;BME280;10169;42.664;23.610;2023-05-20T06:07:34;95591.13;;;16.23;100.00
20017;BME280;10169;42.664;23.610;2023-05-20T06:09:34;95595.94;;;16.16;100.00
20017;BME280;10169;42.664;23.610;2023-05-20T06:11:35;95597.78;;;16.05;100.00
20017;BME280;10169;42.664;23.610;2023-05-20T06:13:35;95591.63;;;15.94;100.00
20017;BME280;10169;42.664;23.610;2023-05-20T06:15:35;95592.63;;;15.68;100.00
20017;BME280;10169;42.664;23.610;2023-05-20T06:17:36;95594.84;;;15.96;100.00
20017;BME280;10169;42.664;23.610;2023-05-20T06:19:36;95591.09;;;16.08;100.00
20017;BME280;10169;42.664;23.610;2023-05-20T06:21:36;95593.25;;;16.21;100.00
20017;BME280;10169;42.664;23.610;2023-05-20T06:23:37;95591.91;;;16.48;100.00
20017;BME280;10169;42.664;23.610;2023-05-20T06:25:37;95582.56;;;16.61;100.00
20017;BME280;10169;42.664;23.610;2023-05-20T06:27:38;95590.84;;;16.90;100.00
20017;BME280;10169;42.664;23.610;2023-05-20T06:29:38;95598.84;;;17.00;100.00
20017;BME280;10169;42.664;23.610;2023-05-20T06:31:38;95589.75;;;16.91;100.00
20017;BME280;10169;42.664;23.610;2023-05-20T06:33:38;95602.28;;;17.25;100.00
20017;BME280;10169;42.664;23.610;2023-05-20T06:35:39;95599.25;;;17.47;100.00
20017;BME280;10169;42.664;23.610;2023-05-20T06:37:39;95601.56;;;17.74;100.00
20017;BME280;10169;42.664;23.610;2023-05-20T06:39:39;95589.28;;;17.58;100.00
20017;BME280;10169;42.664;23.610;2023-05-20T06:41:40;95589.78;;;17.65;100.00
20017;BME280;10169;42.664;23.610;2023-05-20T06:43:41;95582.72;;;17.84;100.00
